Terminal Aerodrome Forecast
Issued by NWS

Home | Current Version | Previous Version | Text Only | Print | Product List | Glossary On
Versions: 1 2 3 4 5 6 7 8 9 10 11 12 13 14
000
FTUS43 KICT 240500
TAFSLN
TAF
KSLN 240520Z 2406/2506 15013KT P6SM VCSH SCT060 BKN200
     FM240900 16012KT P6SM BKN200
     FM241500 17015G22KT P6SM SCT200
     FM250000 16010KT P6SM SCT200=

USA.gov is the U.S. government's official web portal to all federal, state and local government web resources and services.